Terminal Aerodrome Forecast
Issued by NWS

Home | Current Version | Previous Version | Graphics & Text | Print | Product List | Glossary On
Versions: 1 2 3 4 5 6 7 8 9 10 11 12 13 14 15 16 17 18 19 20 21 22 23 24
971
FTUS43 KGRB 082320
TAFAUW
TAF
KAUW 082320Z 0900/0924 24006KT P6SM OVC024
     FM090200 25004KT 2SM -SN OVC016
      TEMPO 0903/0907 1SM -SN BKN008
     FM090700 32008G14KT 5SM -SN OVC016
     FM091000 33010G19KT P6SM BKN028
     FM091600 34009G16KT P6SM BKN035=

USA.gov is the U.S. government's official web portal to all federal, state and local government web resources and services.